Terminal Aerodrome Forecast
Issued by NWS

Home | Current Version | Previous Version | Graphics & Text | Print | Product List | Glossary On
Versions: 1 2 3 4 5 6 7 8 9 10 11 12 13 14 15
272
FTUS43 KTOP 301720
TAFFOE
TAF
KFOE 301720Z 3018/3118 10007KT P6SM SCT060
      TEMPO 3019/3021 6SM -TSRA BKN035CB
     FM310700 14005KT P6SM VCTS SCT035 BKN080CB
     FM311500 16010KT P6SM SCT040 BKN100=

USA.gov is the U.S. government's official web portal to all federal, state and local government web resources and services.